| time (UTC) | temp F | wind direction | speed MPH | gust MPH | rain 1hr in | rain 24hr in | rain mn in | humidity % | barometer mb |
| 20260509191536 | 46 | 0 | 0.0 | 5.0 | 0.08 | 0.26 | 0.26 | 93 | 1011.2 |
| 20260509190039 | 45 | 0 | 0.0 | 3.0 | 0.06 | 0.23 | 0.23 | 93 | 1011.4 |
| 20260509184538 | 46 | 160 | 0.0 | 4.0 | 0.07 | 0.22 | 0.22 | 93 | 1011.6 |
| 20260509183035 | 46 | 0 | 0.0 | 3.0 | 0.07 | 0.20 | 0.20 | 93 | 1011.5 |
| 20260509181535 | 46 | 0 | 0.0 | 4.0 | 0.06 | 0.18 | 0.18 | 94 | 1011.5 |
| 20260509180035 | 45 | 128 | 0.0 | 3.0 | 0.06 | 0.16 | 0.16 | 94 | 1011.7 |
| 20260509174536 | 45 | 0 | 0.0 | 0.0 | 0.07 | 0.15 | 0.15 | 94 | 1011.9 |
| 20260509173038 | 44 | 0 | 0.0 | 0.0 | 0.07 | 0.13 | 0.13 | 93 | 1012.1 |
| 20260509171538 | 44 | 0 | 0.0 | 0.0 | 0.07 | 0.11 | 0.11 | 92 | 1012.3 |
| 20260509170038 | 44 | 0 | 0.0 | 0.0 | 0.08 | 0.10 | 0.10 | 92 | 1012.4 |
| 20260509164536 | 45 | 0 | 0.0 | 0.0 | 0.06 | 0.08 | 0.08 | 91 | 1012.5 |
| 20260509163034 | 46 | 0 | 0.0 | 0.0 | 0.05 | 0.06 | 0.06 | 90 | 1012.7 |
| 20260509161533 | 46 | 0 | 0.0 | 3.0 | 0.02 | 0.03 | 0.03 | 88 | 1012.7 |
| 20260509160035 | 47 | 0 | 0.0 | 2.0 | 0.01 | 0.02 | 0.02 | 87 | 1013.0 |
| 20260509154536 | 47 | 0 | 0.0 | 2.0 | 0.02 | 0.02 | 0.02 | 87 | 1012.9 |
| 20260509153036 | 47 | 0 | 0.0 | 2.0 | 0.01 | 0.01 | 0.01 | 86 | 1013.2 |
| 20260509152054 | 48 | 55 | 0.0 | 4.0 | 0.00 | 0.00 | 0.01 | 86 | 1013.2 |
| 20260509151535 | 47 | 0 | 0.0 | 2.0 | 0.01 | 0.01 | 0.01 | 86 | 1013.2 |
| 20260509150036 | 48 | 0 | 0.0 | 1.0 | 0.01 | 0.01 | 0.01 | 83 | 1013.1 |
| 20260509144544 | 48 | 0 | 0.0 | 0.0 | 0.00 | 0.00 | 0.00 | 80 | 1013.0 |
| 20260509143039 | 49 | 159 | 1.0 | 5.0 | 0.00 | 0.00 | 0.00 | 71 | 1012.9 |
| 20260509141539 | 49 | 0 | 1.0 | 3.0 | 0.00 | 0.00 | 0.00 | 64 | 1012.9 |
| 20260509140054 | 49 | 0 | 0.0 | 6.0 | 0.00 | 0.00 | 0.00 | 64 | 1012.7 |
| 20260509134537 | 49 | 0 | 0.0 | 4.0 | 0.00 | 0.00 | 0.00 | 62 | 1012.8 |
| 20260509133839 | 50 | 82 | 0.0 | 0.0 | 0.00 | 0.00 | 0.00 | 61 | 1012.8 |
| 20260509133344 | 50 | 80 | 0.0 | 0.0 | 0.00 | 0.00 | 0.00 | 61 | 1012.8 |
| 20260509133036 | 49 | 0 | 0.0 | 6.0 | 0.00 | 0.00 | 0.00 | 61 | 1012.8 |
| 20260509132849 | 50 | 155 | 0.0 | 3.0 | 0.00 | 0.00 | 0.00 | 60 | 1012.7 |
| 20260509132345 | 50 | 130 | 0.0 | 4.0 | 0.00 | 0.00 | 0.00 | 61 | 1012.6 |
| 20260509131848 | 50 | 313 | 0.0 | 3.0 | 0.00 | 0.00 | 0.00 | 61 | 1012.7 |
| 20260509131545 | 49 | 138 | 1.0 | 7.0 | 0.00 | 0.00 | 0.00 | 61 | 1012.8 |
| 20260509130735 | 49 | 109 | 1.0 | 6.0 | 0.00 | 0.00 | 0.00 | 60 | 1012.7 |
| 20260509130035 | 48 | 0 | 2.0 | 7.0 | 0.00 | 0.00 | 0.00 | 63 | 1012.7 |
| 20260509125603 | 48 | 56 | 1.0 | 6.0 | 0.00 | 0.00 | 0.00 | 63 | 1012.6 |
| 20260509125048 | 48 | 75 | 0.0 | 6.0 | 0.00 | 0.00 | 0.00 | 64 | 1013.0 |
| 20260509124542 | 46 | 340 | 1.0 | 6.0 | 0.00 | 0.00 | 0.00 | 67 | 1013.1 |
| 20260509124539 | 47 | 55 | 0.0 | 3.0 | 0.00 | 0.00 | 0.00 | 67 | 1013.1 |
| 20260509123032 | 42 | 332 | 0.0 | 3.0 | 0.00 | 0.00 | 0.00 | 79 | 1013.2 |
| 20260509121551 | 40 | 0 | 0.0 | 0.0 | 0.00 | 0.00 | 0.00 | 84 | 1013.4 |
| 20260509120038 | 38 | 0 | 0.0 | 0.0 | 0.00 | 0.00 | 0.00 | 87 | 1013.5 |
| 20260509114535 | 36 | 0 | 0.0 | 0.0 | 0.00 | 0.00 | 0.00 | 92 | 1013.6 |
| 20260509113057 | 34 | 0 | 0.0 | 0.0 | 0.00 | 0.00 | 0.00 | 93 | 1013.8 |
| 20260509111538 | 33 | 0 | 0.0 | 0.0 | 0.00 | 0.00 | 0.00 | 94 | 1013.6 |
| 20260509110038 | 32 | 0 | 0.0 | 0.0 | 0.00 | 0.00 | 0.00 | 94 | 1013.7 |
| 20260509104537 | 30 | 0 | 0.0 | 0.0 | 0.00 | 0.00 | 0.00 | 94 | 1013.6 |
| 20260509103037 | 29 | 0 | 0.0 | 0.0 | 0.00 | 0.00 | 0.00 | 93 | 1013.7 |
| 20260509101537 | 29 | 0 | 0.0 | 0.0 | 0.00 | 0.00 | 0.00 | 93 | 1013.7 |
| 20260509100035 | 29 | 0 | 0.0 | 0.0 | 0.00 | 0.00 | 0.00 | 92 | 1013.6 |
| 20260509094538 | 29 | 0 | 0.0 | 0.0 | 0.00 | 0.00 | 0.00 | 92 | 1013.2 |
| 20260509093038 | 29 | 0 | 0.0 | 0.0 | 0.00 | 0.00 | 0.00 | 92 | 1013.0 |
| 20260509091536 | 29 | 0 | 0.0 | 0.0 | 0.00 | 0.00 | 0.00 | 91 | 1012.8 |
| 20260509090035 | 30 | 0 | 0.0 | 0.0 | 0.00 | 0.00 | 0.00 | 92 | 1012.8 |
| 20260509084538 | 30 | 0 | 0.0 | 0.0 | 0.00 | 0.00 | 0.00 | 91 | 1012.7 |
| 20260509083046 | 31 | 0 | 0.0 | 0.0 | 0.00 | 0.00 | 0.00 | 92 | 1012.6 |
| 20260509081536 | 30 | 0 | 0.0 | 0.0 | 0.00 | 0.00 | 0.00 | 92 | 1012.3 |
| 20260509080037 | 30 | 0 | 0.0 | 0.0 | 0.00 | 0.00 | 0.00 | 91 | 1012.3 |
| 20260509074537 | 31 | 0 | 0.0 | 0.0 | 0.00 | 0.00 | 0.00 | 91 | 1012.4 |
| 20260509073036 | 31 | 0 | 0.0 | 0.0 | 0.00 | 0.00 | 0.00 | 91 | 1012.7 |
| 20260509071540 | 30 | 0 | 0.0 | 0.0 | 0.00 | 0.00 | 0.00 | 91 | 1012.7 |
| 20260509070733 | 31 | 70 | 0.0 | 0.0 | 0.00 | 0.00 | 0.00 | 91 | 1012.7 |
| 20260509070037 | 30 | 0 | 0.0 | 0.0 | 0.00 | 0.00 | 0.00 | 90 | 1012.8 |
| 20260509064536 | 30 | 0 | 0.0 | 0.0 | 0.00 | 0.00 | 0.00 | 90 | 1012.9 |
| 20260509063035 | 31 | 0 | 0.0 | 0.0 | 0.00 | 0.00 | 0.00 | 89 | 1012.9 |
| 20260509061541 | 31 | 0 | 0.0 | 0.0 | 0.00 | 0.00 | 0.00 | 89 | 1012.9 |
| 20260509060037 | 32 | 0 | 0.0 | 0.0 | 0.00 | 0.00 | 0.00 | 88 | 1012.9 |
| 20260509054540 | 32 | 0 | 0.0 | 0.0 | 0.00 | 0.00 | 0.00 | 88 | 1013.0 |
| 20260509053058 | 32 | 0 | 0.0 | 0.0 | 0.00 | 0.00 | 0.00 | 87 | 1012.9 |
| 20260509051536 | 33 | 0 | 0.0 | 0.0 | 0.00 | 0.00 | 0.00 | 87 | 1012.8 |
| 20260509050037 | 33 | 0 | 0.0 | 0.0 | 0.00 | 0.00 | 0.00 | 86 | 1012.7 |
| 20260509044534 | 33 | 0 | 0.0 | 0.0 | 0.00 | 0.00 | 0.00 | 85 | 1012.5 |
| 20260509043046 | 34 | 0 | 0.0 | 0.0 | 0.00 | 0.00 | 0.00 | 84 | 1012.5 |
| 20260509041550 | 35 | 0 | 0.0 | 0.0 | 0.00 | 0.00 | 0.00 | 83 | 1012.7 |
| 20260509040035 | 35 | 0 | 0.0 | 0.0 | 0.00 | 0.00 | 0.00 | 82 | 1012.5 |
| 20260509034546 | 36 | 0 | 0.0 | 0.0 | 0.00 | 0.00 | 0.00 | 81 | 1012.5 |
| 20260509033037 | 37 | 0 | 0.0 | 0.0 | 0.00 | 0.00 | 0.00 | 80 | 1012.5 |
| 20260509031539 | 37 | 0 | 0.0 | 0.0 | 0.00 | 0.00 | 0.00 | 78 | 1012.3 |
| 20260509030036 | 38 | 0 | 0.0 | 0.0 | 0.00 | 0.00 | 0.00 | 77 | 1012.2 |
| 20260509024536 | 39 | 0 | 0.0 | 0.0 | 0.00 | 0.00 | 0.00 | 75 | 1012.0 |
| 20260509023037 | 40 | 0 | 0.0 | 0.0 | 0.00 | 0.00 | 0.00 | 73 | 1011.9 |
| 20260509021538 | 41 | 0 | 0.0 | 0.0 | 0.00 | 0.00 | 0.00 | 72 | 1011.7 |
| 20260509020047 | 42 | 0 | 0.0 | 0.0 | 0.00 | 0.00 | 0.00 | 70 | 1011.5 |
| 20260509014535 | 43 | 0 | 0.0 | 0.0 | 0.00 | 0.00 | 0.00 | 66 | 1011.4 |
| 20260509013047 | 45 | 0 | 0.0 | 0.0 | 0.00 | 0.00 | 0.00 | 61 | 1011.1 |
| 20260509011536 | 46 | 0 | 0.0 | 0.0 | 0.00 | 0.00 | 0.00 | 58 | 1011.0 |
| 20260509010049 | 46 | 0 | 0.0 | 3.0 | 0.00 | 0.00 | 0.00 | 57 | 1010.8 |
| 20260509004537 | 47 | 123 | 1.0 | 4.0 | 0.00 | 0.00 | 0.00 | 57 | 1010.6 |
| 20260509003037 | 47 | 0 | 0.0 | 2.0 | 0.00 | 0.00 | 0.00 | 54 | 1010.5 |
| 20260509001536 | 48 | 0 | 0.0 | 3.0 | 0.00 | 0.00 | 0.00 | 53 | 1010.3 |
| 20260509000034 | 49 | 0 | 0.0 | 7.0 | 0.00 | 0.00 | 0.00 | 52 | 1010.0 |
| 20260508235427 | 49 | 19 | 1.0 | 6.0 | 0.00 | 0.00 | 0.00 | 50 | 1009.9 |
| 20260508234919 | 50 | 192 | 0.0 | 1.0 | 0.00 | 0.00 | 0.00 | 49 | 1009.8 |
| 20260508234538 | 49 | 200 | 1.0 | 3.0 | 0.00 | 0.00 | 0.00 | 47 | 1009.8 |
| 20260508234419 | 50 | 109 | 0.0 | 2.0 | 0.00 | 0.00 | 0.00 | 47 | 1009.7 |
| 20260508233037 | 50 | 0 | 0.0 | 7.0 | 0.00 | 0.00 | 0.00 | 44 | 1009.4 |
| 20260508231536 | 50 | 0 | 0.0 | 8.0 | 0.00 | 0.00 | 0.00 | 41 | 1009.3 |
| 20260508230047 | 50 | 0 | 1.0 | 3.0 | 0.00 | 0.00 | 0.00 | 40 | 1009.2 |
| 20260508224541 | 51 | 0 | 0.0 | 0.0 | 0.00 | 0.00 | 0.00 | 39 | 1009.2 |
| 20260508223039 | 51 | 0 | 0.0 | 6.0 | 0.00 | 0.00 | 0.00 | 43 | 1009.0 |
| 20260508221545 | 52 | 72 | 0.0 | 3.0 | 0.00 | 0.00 | 0.00 | 37 | 1009.0 |
| 20260508220037 | 52 | 334 | 1.0 | 3.0 | 0.00 | 0.00 | 0.00 | 38 | 1008.9 |
| 20260508214535 | 52 | 0 | 0.0 | 2.0 | 0.00 | 0.00 | 0.00 | 39 | 1008.8 |
| 20260508213034 | 52 | 0 | 0.0 | 6.0 | 0.00 | 0.00 | 0.00 | 41 | 1008.8 |
| 20260508211535 | 52 | 0 | 0.0 | 4.0 | 0.00 | 0.00 | 0.00 | 37 | 1008.8 |
| 20260508211252 | 53 | 299 | 1.0 | 3.0 | 0.00 | 0.00 | 0.00 | 39 | 1008.7 |
| 20260508210745 | 53 | 340 | 1.0 | 3.0 | 0.00 | 0.00 | 0.00 | 38 | 1008.6 |
| 20260508210236 | 53 | 70 | 0.0 | 3.0 | 0.00 | 0.00 | 0.00 | 35 | 1008.5 |
| 20260508210036 | 52 | 329 | 1.0 | 6.0 | 0.00 | 0.00 | 0.00 | 36 | 1008.6 |
| 20260508205722 | 52 | 23 | 0.0 | 3.0 | 0.00 | 0.00 | 0.00 | 36 | 1008.5 |
| 20260508204539 | 52 | 324 | 2.0 | 5.0 | 0.00 | 0.00 | 0.00 | 40 | 1008.5 |
| 20260508203942 | 52 | 340 | 1.0 | 3.0 | 0.00 | 0.00 | 0.00 | 39 | 1008.3 |
| 20260508203450 | 52 | 340 | 1.0 | 3.0 | 0.00 | 0.00 | 0.00 | 39 | 1008.4 |
| 20260508203035 | 52 | 302 | 2.0 | 4.0 | 0.00 | 0.00 | 0.00 | 39 | 1008.4 |
| 20260508202957 | 52 | 357 | 1.0 | 3.0 | 0.00 | 0.00 | 0.00 | 39 | 1008.3 |
| 20260508202453 | 52 | 336 | 1.0 | 3.0 | 0.00 | 0.00 | 0.00 | 38 | 1008.3 |
| 20260508201536 | 52 | 358 | 1.0 | 4.0 | 0.00 | 0.00 | 0.00 | 38 | 1008.3 |
| 20260508200655 | 52 | 321 | 0.0 | 0.0 | 0.00 | 0.00 | 0.00 | 39 | 1008.2 |
| 20260508200201 | 51 | 321 | 0.0 | 0.0 | 0.00 | 0.00 | 0.00 | 41 | 1008.3 |
| 20260508200043 | 51 | 0 | 0.0 | 5.0 | 0.00 | 0.00 | 0.00 | 39 | 1008.3 |
| 20260508195649 | 51 | 3 | 1.0 | 3.0 | 0.00 | 0.00 | 0.00 | 39 | 1008.4 |
| 20260508195149 | 52 | 301 | 0.0 | 2.0 | 0.00 | 0.00 | 0.00 | 39 | 1008.4 |
| 20260508194535 | 51 | 23 | 0.0 | 3.0 | 0.00 | 0.00 | 0.00 | 41 | 1008.4 |
| 20260508193037 | 51 | 0 | 0.0 | 4.0 | 0.00 | 0.00 | 0.00 | 40 | 1008.5 |